Presque Isle, Wisconsin
Current Conditions -  °F | °C
As of 3:35 PM on Thursday 18 Dec 2014 (Local Time) from KD25 Reporting Station
Clear Clear  
Wind Chill: 24°   Ceiling: Unl
Heat Index: 24°   Visibility: 10mi
Dew Point: 16°   Wind: 0mph
Humidity: 71%   Direction: NA
Pressure: 30.2"   Gusts: NA
Location:  46.25°N, 89.73°W
Report Text: KD25 182135Z AUTO 00000KT 10SM CLR M05/M09 A3020 RMK AO2 T10461091
Loading
Personal Weather Stations






























Interactive Weather Map New forecast layout! Learn more

10-Day Weather Forecast

Advertisements
Track Severe Weather on mobile